sensor_id;sensor_type;location;lat;lon;timestamp;temperature;humidity
1021;DHT22;499;42.648;23.270;2022-10-31T00:00:15;14.50;19.50
1021;DHT22;499;42.648;23.270;2022-10-31T00:02:42;14.50;19.80
1021;DHT22;499;42.648;23.270;2022-10-31T00:05:09;14.40;20.20
1021;DHT22;499;42.648;23.270;2022-10-31T00:07:38;14.40;20.10
1021;DHT22;499;42.648;23.270;2022-10-31T00:10:06;14.30;20.60
1021;DHT22;499;42.648;23.270;2022-10-31T00:12:33;14.30;20.60
1021;DHT22;499;42.648;23.270;2022-10-31T00:15:00;14.40;20.80
1021;DHT22;499;42.648;23.270;2022-10-31T00:17:27;14.30;21.30
1021;DHT22;499;42.648;23.270;2022-10-31T00:19:54;14.20;21.30
1021;DHT22;499;42.648;23.270;2022-10-31T00:22:22;14.20;21.20
1021;DHT22;499;42.648;23.270;2022-10-31T00:24:50;14.20;21.30
1021;DHT22;499;42.648;23.270;2022-10-31T00:27:17;14.20;22.20
1021;DHT22;499;42.648;23.270;2022-10-31T00:29:44;14.10;22.20
1021;DHT22;499;42.648;23.270;2022-10-31T00:32:11;14.10;22.10
1021;DHT22;499;42.648;23.270;2022-10-31T00:34:38;14.00;22.10
1021;DHT22;499;42.648;23.270;2022-10-31T00:37:05;14.00;22.50
1021;DHT22;499;42.648;23.270;2022-10-31T00:39:32;13.90;22.80
1021;DHT22;499;42.648;23.270;2022-10-31T00:42:01;13.80;23.50
1021;DHT22;499;42.648;23.270;2022-10-31T00:44:28;13.80;23.60
1021;DHT22;499;42.648;23.270;2022-10-31T00:46:55;13.70;23.50
1021;DHT22;499;42.648;23.270;2022-10-31T00:49:22;13.70;24.20
1021;DHT22;499;42.648;23.270;2022-10-31T00:51:49;13.70;24.20
1021;DHT22;499;42.648;23.270;2022-10-31T00:54:16;13.70;24.40
1021;DHT22;499;42.648;23.270;2022-10-31T00:56:43;13.70;24.90
1021;DHT22;499;42.648;23.270;2022-10-31T00:59:11;13.70;25.20
1021;DHT22;499;42.648;23.270;2022-10-31T01:01:38;13.70;25.30
1021;DHT22;499;42.648;23.270;2022-10-31T01:04:05;13.70;25.70
1021;DHT22;499;42.648;23.270;2022-10-31T01:06:32;13.60;25.70
1021;DHT22;499;42.648;23.270;2022-10-31T01:08:59;13.60;26.00
1021;DHT22;499;42.648;23.270;2022-10-31T01:11:26;13.50;26.80
1021;DHT22;499;42.648;23.270;2022-10-31T01:13:53;13.50;26.80
1021;DHT22;499;42.648;23.270;2022-10-31T01:16:23;13.50;26.70
1021;DHT22;499;42.648;23.270;2022-10-31T01:18:51;13.50;26.90
1021;DHT22;499;42.648;23.270;2022-10-31T01:21:20;13.60;26.40
1021;DHT22;499;42.648;23.270;2022-10-31T01:23:48;13.60;25.70
1021;DHT22;499;42.648;23.270;2022-10-31T01:26:17;13.70;25.30
1021;DHT22;499;42.648;23.270;2022-10-31T01:28:46;13.90;24.90
1021;DHT22;499;42.648;23.270;2022-10-31T01:31:14;14.00;24.50
1021;DHT22;499;42.648;23.270;2022-10-31T01:33:43;14.00;24.80
1021;DHT22;499;42.648;23.270;2022-10-31T01:36:15;14.10;24.80
1021;DHT22;499;42.648;23.270;2022-10-31T01:38:44;14.20;24.40
1021;DHT22;499;42.648;23.270;2022-10-31T01:41:12;14.20;24.30
1021;DHT22;499;42.648;23.270;2022-10-31T01:43:49;14.30;24.00
1021;DHT22;499;42.648;23.270;2022-10-31T01:46:20;14.40;23.70
1021;DHT22;499;42.648;23.270;2022-10-31T01:48:49;14.40;23.90
1021;DHT22;499;42.648;23.270;2022-10-31T01:51:17;14.40;23.70
1021;DHT22;499;42.648;23.270;2022-10-31T01:53:47;14.50;23.30
1021;DHT22;499;42.648;23.270;2022-10-31T01:56:15;14.60;22.90
1021;DHT22;499;42.648;23.270;2022-10-31T01:58:45;14.70;22.90
1021;DHT22;499;42.648;23.270;2022-10-31T02:01:13;14.70;23.10
1021;DHT22;499;42.648;23.270;2022-10-31T02:03:41;14.70;22.60
1021;DHT22;499;42.648;23.270;2022-10-31T02:06:18;14.70;23.30
1021;DHT22;499;42.648;23.270;2022-10-31T02:08:46;14.70;23.60
1021;DHT22;499;42.648;23.270;2022-10-31T02:11:14;14.70;24.30
1021;DHT22;499;42.648;23.270;2022-10-31T02:13:42;14.70;24.50
1021;DHT22;499;42.648;23.270;2022-10-31T02:16:09;14.70;23.50
1021;DHT22;499;42.648;23.270;2022-10-31T02:18:36;14.70;23.30
1021;DHT22;499;42.648;23.270;2022-10-31T02:21:10;14.80;23.10
1021;DHT22;499;42.648;23.270;2022-10-31T02:24:11;14.80;23.00
1021;DHT22;499;42.648;23.270;2022-10-31T02:26:54;14.80;23.90
1021;DHT22;499;42.648;23.270;2022-10-31T02:32:36;14.70;24.20
1021;DHT22;499;42.648;23.270;2022-10-31T02:35:11;14.80;23.10
1021;DHT22;499;42.648;23.270;2022-10-31T02:37:45;14.90;22.70
1021;DHT22;499;42.648;23.270;2022-10-31T02:40:20;14.80;23.40
1021;DHT22;499;42.648;23.270;2022-10-31T02:42:54;14.80;22.60
1021;DHT22;499;42.648;23.270;2022-10-31T02:45:29;14.70;22.60
1021;DHT22;499;42.648;23.270;2022-10-31T02:48:02;14.60;23.10
1021;DHT22;499;42.648;23.270;2022-10-31T02:50:32;14.30;23.50
1021;DHT22;499;42.648;23.270;2022-10-31T02:53:01;14.30;24.40
1021;DHT22;499;42.648;23.270;2022-10-31T02:55:51;14.30;24.70
1021;DHT22;499;42.648;23.270;2022-10-31T02:58:23;14.30;24.50
1021;DHT22;499;42.648;23.270;2022-10-31T03:01:13;14.30;24.40
1021;DHT22;499;42.648;23.270;2022-10-31T03:03:54;14.30;25.10
1021;DHT22;499;42.648;23.270;2022-10-31T03:06:29;14.20;26.10
1021;DHT22;499;42.648;23.270;2022-10-31T03:09:03;14.10;26.10
1021;DHT22;499;42.648;23.270;2022-10-31T03:11:36;14.10;27.00
1021;DHT22;499;42.648;23.270;2022-10-31T03:14:10;14.10;27.70
1021;DHT22;499;42.648;23.270;2022-10-31T03:16:43;14.00;28.70
1021;DHT22;499;42.648;23.270;2022-10-31T03:19:17;13.90;29.70
1021;DHT22;499;42.648;23.270;2022-10-31T03:21:49;14.00;29.80
1021;DHT22;499;42.648;23.270;2022-10-31T03:24:21;13.80;29.60
1021;DHT22;499;42.648;23.270;2022-10-31T03:26:52;13.80;29.70
1021;DHT22;499;42.648;23.270;2022-10-31T03:29:22;13.60;29.50
1021;DHT22;499;42.648;23.270;2022-10-31T03:31:53;13.60;30.40
1021;DHT22;499;42.648;23.270;2022-10-31T03:34:23;13.50;31.80
1021;DHT22;499;42.648;23.270;2022-10-31T03:36:51;13.30;33.80
1021;DHT22;499;42.648;23.270;2022-10-31T03:39:21;13.30;33.80
1021;DHT22;499;42.648;23.270;2022-10-31T03:41:53;13.20;34.70
1021;DHT22;499;42.648;23.270;2022-10-31T03:44:22;13.10;34.20
1021;DHT22;499;42.648;23.270;2022-10-31T03:46:50;13.10;33.70
1021;DHT22;499;42.648;23.270;2022-10-31T03:49:18;13.20;33.80
1021;DHT22;499;42.648;23.270;2022-10-31T03:51:50;13.10;35.10
1021;DHT22;499;42.648;23.270;2022-10-31T03:54:24;13.20;35.10
1021;DHT22;499;42.648;23.270;2022-10-31T03:56:55;13.10;34.40
1021;DHT22;499;42.648;23.270;2022-10-31T03:59:26;13.10;33.70
1021;DHT22;499;42.648;23.270;2022-10-31T04:02:00;13.10;33.70
1021;DHT22;499;42.648;23.270;2022-10-31T04:04:29;13.10;33.70
1021;DHT22;499;42.648;23.270;2022-10-31T04:07:00;13.10;33.70
1021;DHT22;499;42.648;23.270;2022-10-31T04:09:31;13.00;35.40
1021;DHT22;499;42.648;23.270;2022-10-31T04:12:01;12.90;37.00
1021;DHT22;499;42.648;23.270;2022-10-31T04:14:30;12.70;39.00
1021;DHT22;499;42.648;23.270;2022-10-31T04:16:57;12.80;40.00
1021;DHT22;499;42.648;23.270;2022-10-31T04:19:25;12.80;39.20
1021;DHT22;499;42.648;23.270;2022-10-31T04:21:52;12.80;40.40
1021;DHT22;499;42.648;23.270;2022-10-31T04:24:21;12.80;40.60
1021;DHT22;499;42.648;23.270;2022-10-31T04:26:48;12.80;40.90
1021;DHT22;499;42.648;23.270;2022-10-31T04:29:15;12.90;40.30
1021;DHT22;499;42.648;23.270;2022-10-31T04:31:42;12.80;40.50
1021;DHT22;499;42.648;23.270;2022-10-31T04:34:09;12.80;41.40
1021;DHT22;499;42.648;23.270;2022-10-31T04:36:36;12.90;41.50
1021;DHT22;499;42.648;23.270;2022-10-31T04:39:03;12.90;41.00
1021;DHT22;499;42.648;23.270;2022-10-31T04:41:32;13.00;40.60
1021;DHT22;499;42.648;23.270;2022-10-31T04:43:59;13.00;40.60
1021;DHT22;499;42.648;23.270;2022-10-31T04:46:26;13.20;38.60
1021;DHT22;499;42.648;23.270;2022-10-31T04:48:53;13.20;38.60
1021;DHT22;499;42.648;23.270;2022-10-31T04:51:20;13.10;40.50
1021;DHT22;499;42.648;23.270;2022-10-31T04:53:47;13.00;41.00
1021;DHT22;499;42.648;23.270;2022-10-31T04:56:14;13.10;41.10
1021;DHT22;499;42.648;23.270;2022-10-31T04:58:43;13.00;41.30
1021;DHT22;499;42.648;23.270;2022-10-31T05:01:10;13.10;40.80
1021;DHT22;499;42.648;23.270;2022-10-31T05:03:37;13.10;41.10
1021;DHT22;499;42.648;23.270;2022-10-31T05:06:05;13.30;42.10
1021;DHT22;499;42.648;23.270;2022-10-31T05:08:32;13.10;41.10
1021;DHT22;499;42.648;23.270;2022-10-31T05:10:59;13.20;37.60
1021;DHT22;499;42.648;23.270;2022-10-31T05:13:27;13.20;38.60
1021;DHT22;499;42.648;23.270;2022-10-31T05:15:56;13.20;38.50
1021;DHT22;499;42.648;23.270;2022-10-31T05:18:23;13.30;38.70
1021;DHT22;499;42.648;23.270;2022-10-31T05:20:50;13.30;38.10
1021;DHT22;499;42.648;23.270;2022-10-31T05:23:17;13.40;38.70
1021;DHT22;499;42.648;23.270;2022-10-31T05:25:44;13.40;37.60
1021;DHT22;499;42.648;23.270;2022-10-31T05:28:11;13.40;37.40
1021;DHT22;499;42.648;23.270;2022-10-31T05:30:38;13.40;37.70
1021;DHT22;499;42.648;23.270;2022-10-31T05:33:07;13.40;38.70
1021;DHT22;499;42.648;23.270;2022-10-31T05:35:34;13.40;39.30
1021;DHT22;499;42.648;23.270;2022-10-31T05:38:01;13.40;38.80
1021;DHT22;499;42.648;23.270;2022-10-31T05:40:28;13.40;38.70
1021;DHT22;499;42.648;23.270;2022-10-31T05:42:56;13.40;40.30
1021;DHT22;499;42.648;23.270;2022-10-31T05:45:24;13.40;39.30
1021;DHT22;499;42.648;23.270;2022-10-31T05:47:52;13.10;42.70
1021;DHT22;499;42.648;23.270;2022-10-31T05:50:22;13.10;43.60
1021;DHT22;499;42.648;23.270;2022-10-31T05:52:55;13.10;46.00
1021;DHT22;499;42.648;23.270;2022-10-31T05:55:22;13.00;44.80
1021;DHT22;499;42.648;23.270;2022-10-31T05:57:49;13.10;46.30
1021;DHT22;499;42.648;23.270;2022-10-31T06:00:16;13.10;45.70
1021;DHT22;499;42.648;23.270;2022-10-31T06:02:43;13.10;46.00
1021;DHT22;499;42.648;23.270;2022-10-31T06:05:11;13.20;44.90
1021;DHT22;499;42.648;23.270;2022-10-31T06:07:39;13.40;43.40
1021;DHT22;499;42.648;23.270;2022-10-31T06:10:07;13.50;42.10
1021;DHT22;499;42.648;23.270;2022-10-31T06:12:35;13.60;40.90
1021;DHT22;499;42.648;23.270;2022-10-31T06:15:04;13.70;40.80
1021;DHT22;499;42.648;23.270;2022-10-31T06:17:32;13.70;40.20
1021;DHT22;499;42.648;23.270;2022-10-31T06:20:00;13.70;40.60
1021;DHT22;499;42.648;23.270;2022-10-31T06:22:27;13.80;40.50
1021;DHT22;499;42.648;23.270;2022-10-31T06:24:56;13.90;39.20
1021;DHT22;499;42.648;23.270;2022-10-31T06:27:23;14.00;38.70
1021;DHT22;499;42.648;23.270;2022-10-31T06:29:50;13.90;37.10
1021;DHT22;499;42.648;23.270;2022-10-31T06:32:18;14.00;37.80
1021;DHT22;499;42.648;23.270;2022-10-31T06:34:46;14.10;37.50
1021;DHT22;499;42.648;23.270;2022-10-31T06:37:14;14.10;36.20
1021;DHT22;499;42.648;23.270;2022-10-31T06:39:42;14.10;37.20
1021;DHT22;499;42.648;23.270;2022-10-31T06:42:10;14.10;37.90
1021;DHT22;499;42.648;23.270;2022-10-31T06:44:37;14.30;38.30
1021;DHT22;499;42.648;23.270;2022-10-31T06:47:05;14.40;36.10
1021;DHT22;499;42.648;23.270;2022-10-31T06:49:33;14.50;35.50
1021;DHT22;499;42.648;23.270;2022-10-31T06:52:00;14.50;34.90
1021;DHT22;499;42.648;23.270;2022-10-31T06:54:28;14.60;35.00
1021;DHT22;499;42.648;23.270;2022-10-31T06:56:55;14.70;33.00
1021;DHT22;499;42.648;23.270;2022-10-31T06:59:23;14.80;34.00
1021;DHT22;499;42.648;23.270;2022-10-31T07:01:50;14.80;32.80
1021;DHT22;499;42.648;23.270;2022-10-31T07:04:17;14.90;32.10
1021;DHT22;499;42.648;23.270;2022-10-31T07:06:44;14.90;30.50
1021;DHT22;499;42.648;23.270;2022-10-31T07:09:11;14.80;30.30
1021;DHT22;499;42.648;23.270;2022-10-31T07:11:39;14.80;31.00
1021;DHT22;499;42.648;23.270;2022-10-31T07:14:06;14.60;30.70
1021;DHT22;499;42.648;23.270;2022-10-31T07:16:34;14.50;32.90
1021;DHT22;499;42.648;23.270;2022-10-31T07:19:01;14.50;33.70
1021;DHT22;499;42.648;23.270;2022-10-31T07:21:28;14.60;32.90
1021;DHT22;499;42.648;23.270;2022-10-31T07:23:56;14.70;33.50
1021;DHT22;499;42.648;23.270;2022-10-31T07:26:23;14.80;30.90
1021;DHT22;499;42.648;23.270;2022-10-31T07:28:50;14.90;30.40
1021;DHT22;499;42.648;23.270;2022-10-31T07:31:17;14.90;30.10
1021;DHT22;499;42.648;23.270;2022-10-31T07:33:45;14.80;29.80
1021;DHT22;499;42.648;23.270;2022-10-31T07:36:12;14.50;30.80
1021;DHT22;499;42.648;23.270;2022-10-31T07:38:39;14.70;31.20
1021;DHT22;499;42.648;23.270;2022-10-31T07:41:06;14.80;30.90
1021;DHT22;499;42.648;23.270;2022-10-31T07:43:34;14.90;30.30
1021;DHT22;499;42.648;23.270;2022-10-31T07:46:01;15.10;30.00
1021;DHT22;499;42.648;23.270;2022-10-31T07:48:28;15.10;30.20
1021;DHT22;499;42.648;23.270;2022-10-31T07:50:56;15.20;28.80
1021;DHT22;499;42.648;23.270;2022-10-31T07:53:23;15.20;28.60
1021;DHT22;499;42.648;23.270;2022-10-31T07:55:50;15.40;29.00
1021;DHT22;499;42.648;23.270;2022-10-31T07:58:18;15.50;28.10
1021;DHT22;499;42.648;23.270;2022-10-31T08:00:47;15.60;27.50
1021;DHT22;499;42.648;23.270;2022-10-31T08:03:15;15.60;27.90
1021;DHT22;499;42.648;23.270;2022-10-31T08:05:43;15.70;27.10
1021;DHT22;499;42.648;23.270;2022-10-31T08:08:13;15.80;27.30
1021;DHT22;499;42.648;23.270;2022-10-31T08:10:40;15.80;27.20
1021;DHT22;499;42.648;23.270;2022-10-31T08:13:09;15.80;27.20
1021;DHT22;499;42.648;23.270;2022-10-31T08:15:36;15.80;27.20
1021;DHT22;499;42.648;23.270;2022-10-31T08:18:06;15.80;27.20
1021;DHT22;499;42.648;23.270;2022-10-31T08:20:33;15.90;27.10
1021;DHT22;499;42.648;23.270;2022-10-31T08:23:02;15.90;26.90
1021;DHT22;499;42.648;23.270;2022-10-31T08:25:31;16.00;26.50
1021;DHT22;499;42.648;23.270;2022-10-31T08:27:59;16.30;26.30
1021;DHT22;499;42.648;23.270;2022-10-31T08:30:28;16.40;26.00
1021;DHT22;499;42.648;23.270;2022-10-31T08:33:02;16.50;25.90
1021;DHT22;499;42.648;23.270;2022-10-31T08:35:31;16.50;25.10
1021;DHT22;499;42.648;23.270;2022-10-31T08:37:58;16.60;25.30
1021;DHT22;499;42.648;23.270;2022-10-31T08:40:27;16.70;25.00
1021;DHT22;499;42.648;23.270;2022-10-31T08:43:00;16.80;24.00
1021;DHT22;499;42.648;23.270;2022-10-31T08:45:28;16.90;24.00
1021;DHT22;499;42.648;23.270;2022-10-31T08:47:59;16.90;24.00
1021;DHT22;499;42.648;23.270;2022-10-31T08:50:27;17.00;24.10
1021;DHT22;499;42.648;23.270;2022-10-31T08:53:00;17.10;23.70
1021;DHT22;499;42.648;23.270;2022-10-31T08:55:27;17.10;23.80
1021;DHT22;499;42.648;23.270;2022-10-31T08:57:55;17.00;23.50
1021;DHT22;499;42.648;23.270;2022-10-31T09:00:25;17.10;23.50
1021;DHT22;499;42.648;23.270;2022-10-31T09:02:56;17.20;23.30
1021;DHT22;499;42.648;23.270;2022-10-31T09:05:24;17.40;23.00
1021;DHT22;499;42.648;23.270;2022-10-31T09:07:52;17.40;22.70
1021;DHT22;499;42.648;23.270;2022-10-31T09:10:22;17.40;22.60
1021;DHT22;499;42.648;23.270;2022-10-31T09:12:54;17.40;22.90
1021;DHT22;499;42.648;23.270;2022-10-31T09:15:22;17.60;22.20
1021;DHT22;499;42.648;23.270;2022-10-31T09:17:50;17.70;22.10
1021;DHT22;499;42.648;23.270;2022-10-31T09:20:17;17.80;21.90
1021;DHT22;499;42.648;23.270;2022-10-31T09:22:44;17.90;21.90
1021;DHT22;499;42.648;23.270;2022-10-31T09:25:11;18.00;21.70
1021;DHT22;499;42.648;23.270;2022-10-31T09:27:39;18.20;21.20
1021;DHT22;499;42.648;23.270;2022-10-31T09:30:07;18.30;20.70
1021;DHT22;499;42.648;23.270;2022-10-31T09:32:34;18.20;21.00
1021;DHT22;499;42.648;23.270;2022-10-31T09:35:02;18.30;21.00
1021;DHT22;499;42.648;23.270;2022-10-31T09:37:30;18.50;20.80
1021;DHT22;499;42.648;23.270;2022-10-31T09:39:57;18.60;20.60
1021;DHT22;499;42.648;23.270;2022-10-31T09:42:47;18.80;19.90
1021;DHT22;499;42.648;23.270;2022-10-31T09:45:23;18.80;19.70
1021;DHT22;499;42.648;23.270;2022-10-31T09:48:06;18.90;19.80
1021;DHT22;499;42.648;23.270;2022-10-31T09:50:41;19.00;19.50
1021;DHT22;499;42.648;23.270;2022-10-31T09:53:19;19.10;19.40
1021;DHT22;499;42.648;23.270;2022-10-31T09:55:50;19.10;18.80
1021;DHT22;499;42.648;23.270;2022-10-31T09:58:20;19.20;18.40
1021;DHT22;499;42.648;23.270;2022-10-31T10:00:49;19.20;18.40
1021;DHT22;499;42.648;23.270;2022-10-31T10:03:26;19.30;18.60
1021;DHT22;499;42.648;23.270;2022-10-31T10:06:01;19.40;17.90
1021;DHT22;499;42.648;23.270;2022-10-31T10:08:32;19.50;17.80
1021;DHT22;499;42.648;23.270;2022-10-31T10:11:12;19.50;17.80
1021;DHT22;499;42.648;23.270;2022-10-31T10:13:53;19.70;17.80
1021;DHT22;499;42.648;23.270;2022-10-31T10:16:35;19.80;16.70
1021;DHT22;499;42.648;23.270;2022-10-31T10:19:15;19.90;16.30
1021;DHT22;499;42.648;23.270;2022-10-31T10:21:51;19.90;14.60
1021;DHT22;499;42.648;23.270;2022-10-31T10:24:47;19.80;15.50
1021;DHT22;499;42.648;23.270;2022-10-31T10:27:22;19.90;15.30
1021;DHT22;499;42.648;23.270;2022-10-31T10:29:56;20.00;14.60
1021;DHT22;499;42.648;23.270;2022-10-31T10:32:27;20.10;14.60
1021;DHT22;499;42.648;23.270;2022-10-31T10:34:59;20.20;14.20
1021;DHT22;499;42.648;23.270;2022-10-31T10:37:31;20.30;14.30
1021;DHT22;499;42.648;23.270;2022-10-31T10:40:07;20.30;14.30
1021;DHT22;499;42.648;23.270;2022-10-31T10:42:35;20.30;14.20
1021;DHT22;499;42.648;23.270;2022-10-31T10:45:20;20.30;14.30
1021;DHT22;499;42.648;23.270;2022-10-31T10:48:14;20.40;13.50
1021;DHT22;499;42.648;23.270;2022-10-31T10:50:44;20.60;13.50
1021;DHT22;499;42.648;23.270;2022-10-31T10:53:30;20.60;12.60
1021;DHT22;499;42.648;23.270;2022-10-31T10:56:11;20.70;12.50
1021;DHT22;499;42.648;23.270;2022-10-31T10:58:43;20.60;12.30
1021;DHT22;499;42.648;23.270;2022-10-31T11:01:12;20.60;12.10
1021;DHT22;499;42.648;23.270;2022-10-31T11:03:40;20.50;12.40
1021;DHT22;499;42.648;23.270;2022-10-31T11:06:17;20.60;12.60
1021;DHT22;499;42.648;23.270;2022-10-31T11:08:49;20.70;11.90
1021;DHT22;499;42.648;23.270;2022-10-31T11:11:23;20.80;12.10
1021;DHT22;499;42.648;23.270;2022-10-31T11:13:57;20.80;11.50
1021;DHT22;499;42.648;23.270;2022-10-31T11:16:30;20.90;12.30
1021;DHT22;499;42.648;23.270;2022-10-31T11:19:12;21.10;11.60
1021;DHT22;499;42.648;23.270;2022-10-31T11:21:41;21.20;12.30
1021;DHT22;499;42.648;23.270;2022-10-31T11:24:18;21.20;10.80
1021;DHT22;499;42.648;23.270;2022-10-31T11:26:47;21.20;10.80
1021;DHT22;499;42.648;23.270;2022-10-31T11:29:16;21.20;10.80
1021;DHT22;499;42.648;23.270;2022-10-31T11:31:45;21.30;10.90
1021;DHT22;499;42.648;23.270;2022-10-31T11:34:20;21.30;10.90
1021;DHT22;499;42.648;23.270;2022-10-31T11:36:49;21.30;10.90
1021;DHT22;499;42.648;23.270;2022-10-31T11:39:21;21.10;10.70
1021;DHT22;499;42.648;23.270;2022-10-31T11:41:50;21.00;10.70
1021;DHT22;499;42.648;23.270;2022-10-31T11:44:19;21.00;10.70
1021;DHT22;499;42.648;23.270;2022-10-31T11:46:48;21.00;10.70
1021;DHT22;499;42.648;23.270;2022-10-31T11:49:20;21.20;10.80
1021;DHT22;499;42.648;23.270;2022-10-31T11:51:49;21.20;10.80
1021;DHT22;499;42.648;23.270;2022-10-31T11:54:22;21.30;10.90
1021;DHT22;499;42.648;23.270;2022-10-31T11:56:50;21.30;10.90
1021;DHT22;499;42.648;23.270;2022-10-31T11:59:23;21.30;10.90
1021;DHT22;499;42.648;23.270;2022-10-31T12:01:52;21.40;10.90
1021;DHT22;499;42.648;23.270;2022-10-31T12:04:28;21.40;10.90
1021;DHT22;499;42.648;23.270;2022-10-31T12:06:57;21.50;11.70
1021;DHT22;499;42.648;23.270;2022-10-31T12:09:28;21.50;11.00
1021;DHT22;499;42.648;23.270;2022-10-31T12:12:26;21.50;10.70
1021;DHT22;499;42.648;23.270;2022-10-31T12:15:15;21.50;10.50
1021;DHT22;499;42.648;23.270;2022-10-31T12:17:47;21.50;10.80
1021;DHT22;499;42.648;23.270;2022-10-31T12:20:22;21.60;11.10
1021;DHT22;499;42.648;23.270;2022-10-31T12:22:59;21.70;11.10
1021;DHT22;499;42.648;23.270;2022-10-31T12:25:40;21.80;10.70
1021;DHT22;499;42.648;23.270;2022-10-31T12:34:13;21.70;11.10
1021;DHT22;499;42.648;23.270;2022-10-31T12:36:53;21.70;11.10
1021;DHT22;499;42.648;23.270;2022-10-31T12:39:33;21.60;11.10
1021;DHT22;499;42.648;23.270;2022-10-31T12:42:14;21.70;11.10
1021;DHT22;499;42.648;23.270;2022-10-31T12:45:03;21.60;10.30
1021;DHT22;499;42.648;23.270;2022-10-31T12:47:53;21.60;10.40
1021;DHT22;499;42.648;23.270;2022-10-31T12:50:31;21.70;11.10
1021;DHT22;499;42.648;23.270;2022-10-31T12:53:10;21.70;11.10
1021;DHT22;499;42.648;23.270;2022-10-31T12:55:47;21.60;11.10
1021;DHT22;499;42.648;23.270;2022-10-31T12:58:21;21.60;11.40
1021;DHT22;499;42.648;23.270;2022-10-31T13:00:57;21.50;12.10
1021;DHT22;499;42.648;23.270;2022-10-31T13:03:32;21.30;12.20
1021;DHT22;499;42.648;23.270;2022-10-31T13:06:05;21.10;12.50
1021;DHT22;499;42.648;23.270;2022-10-31T13:08:37;20.80;12.90
1021;DHT22;499;42.648;23.270;2022-10-31T13:11:10;20.60;13.50
1021;DHT22;499;42.648;23.270;2022-10-31T13:13:44;20.30;13.80
1021;DHT22;499;42.648;23.270;2022-10-31T13:16:15;20.30;14.20
1021;DHT22;499;42.648;23.270;2022-10-31T13:18:47;20.10;14.20
1021;DHT22;499;42.648;23.270;2022-10-31T13:21:19;20.00;15.10
1021;DHT22;499;42.648;23.270;2022-10-31T13:23:49;19.80;15.10
1021;DHT22;499;42.648;23.270;2022-10-31T13:26:35;19.80;15.10
1021;DHT22;499;42.648;23.270;2022-10-31T13:29:09;19.70;15.00
1021;DHT22;499;42.648;23.270;2022-10-31T13:31:40;19.80;15.30
1021;DHT22;499;42.648;23.270;2022-10-31T13:34:14;19.90;15.30
1021;DHT22;499;42.648;23.270;2022-10-31T13:36:48;19.90;15.00
1021;DHT22;499;42.648;23.270;2022-10-31T13:39:24;19.90;15.10
1021;DHT22;499;42.648;23.270;2022-10-31T13:41:59;19.80;15.10
1021;DHT22;499;42.648;23.270;2022-10-31T13:44:29;19.80;15.20
1021;DHT22;499;42.648;23.270;2022-10-31T13:46:57;19.70;15.20
1021;DHT22;499;42.648;23.270;2022-10-31T13:49:36;19.50;14.60
1021;DHT22;499;42.648;23.270;2022-10-31T13:52:15;19.40;15.10
1021;DHT22;499;42.648;23.270;2022-10-31T13:54:44;19.30;15.50
1021;DHT22;499;42.648;23.270;2022-10-31T13:57:17;19.30;15.80
1021;DHT22;499;42.648;23.270;2022-10-31T13:59:51;19.20;16.20
1021;DHT22;499;42.648;23.270;2022-10-31T14:02:23;19.10;16.30
1021;DHT22;499;42.648;23.270;2022-10-31T14:04:54;19.00;16.70
1021;DHT22;499;42.648;23.270;2022-10-31T14:07:23;18.90;17.40
1021;DHT22;499;42.648;23.270;2022-10-31T14:09:55;18.80;17.40
1021;DHT22;499;42.648;23.270;2022-10-31T14:12:26;18.60;17.30
1021;DHT22;499;42.648;23.270;2022-10-31T14:15:02;18.60;17.30
1021;DHT22;499;42.648;23.270;2022-10-31T14:17:36;18.60;17.30
1021;DHT22;499;42.648;23.270;2022-10-31T14:20:24;18.60;17.30
1021;DHT22;499;42.648;23.270;2022-10-31T14:22:52;18.50;17.70
1021;DHT22;499;42.648;23.270;2022-10-31T14:25:26;18.50;18.20
1021;DHT22;499;42.648;23.270;2022-10-31T14:27:54;18.40;17.10
1021;DHT22;499;42.648;23.270;2022-10-31T14:30:25;18.30;17.30
1021;DHT22;499;42.648;23.270;2022-10-31T14:32:54;18.30;17.60
1021;DHT22;499;42.648;23.270;2022-10-31T14:35:27;18.30;17.60
1021;DHT22;499;42.648;23.270;2022-10-31T14:38:21;18.20;18.20
1021;DHT22;499;42.648;23.270;2022-10-31T14:41:06;18.20;18.20
1021;DHT22;499;42.648;23.270;2022-10-31T14:43:49;18.20;18.60
1021;DHT22;499;42.648;23.270;2022-10-31T14:46:29;18.00;18.60
1021;DHT22;499;42.648;23.270;2022-10-31T14:49:10;17.90;18.60
1021;DHT22;499;42.648;23.270;2022-10-31T14:51:42;17.80;19.00
1021;DHT22;499;42.648;23.270;2022-10-31T14:54:15;17.70;19.20
1021;DHT22;499;42.648;23.270;2022-10-31T14:56:48;17.50;19.70
1021;DHT22;499;42.648;23.270;2022-10-31T14:59:20;17.50;20.10
1021;DHT22;499;42.648;23.270;2022-10-31T15:01:56;17.40;20.60
1021;DHT22;499;42.648;23.270;2022-10-31T15:04:26;17.40;20.40
1021;DHT22;499;42.648;23.270;2022-10-31T15:06:59;17.20;20.40
1021;DHT22;499;42.648;23.270;2022-10-31T15:09:29;17.20;20.90
1021;DHT22;499;42.648;23.270;2022-10-31T15:11:58;17.10;21.50
1021;DHT22;499;42.648;23.270;2022-10-31T15:14:27;17.00;21.40
1021;DHT22;499;42.648;23.270;2022-10-31T15:16:58;17.00;21.50
1021;DHT22;499;42.648;23.270;2022-10-31T15:19:28;16.80;21.90
1021;DHT22;499;42.648;23.270;2022-10-31T15:21:57;16.70;22.40
1021;DHT22;499;42.648;23.270;2022-10-31T15:24:31;16.60;22.70
1021;DHT22;499;42.648;23.270;2022-10-31T15:26:59;16.50;22.90
1021;DHT22;499;42.648;23.270;2022-10-31T15:29:27;16.50;23.00
1021;DHT22;499;42.648;23.270;2022-10-31T15:31:57;16.40;23.70
1021;DHT22;499;42.648;23.270;2022-10-31T15:34:29;16.30;23.70
1021;DHT22;499;42.648;23.270;2022-10-31T15:36:58;16.20;24.10
1021;DHT22;499;42.648;23.270;2022-10-31T15:39:25;16.10;24.30
1021;DHT22;499;42.648;23.270;2022-10-31T15:41:54;16.00;24.60
1021;DHT22;499;42.648;23.270;2022-10-31T15:44:31;16.10;24.70
1021;DHT22;499;42.648;23.270;2022-10-31T15:47:03;16.00;24.60
1021;DHT22;499;42.648;23.270;2022-10-31T15:49:34;15.90;25.10
1021;DHT22;499;42.648;23.270;2022-10-31T15:52:09;15.90;25.40
1021;DHT22;499;42.648;23.270;2022-10-31T15:54:44;15.90;25.30
1021;DHT22;499;42.648;23.270;2022-10-31T15:57:11;15.80;25.50
1021;DHT22;499;42.648;23.270;2022-10-31T15:59:41;15.90;24.90
1021;DHT22;499;42.648;23.270;2022-10-31T16:02:14;15.90;24.60
1021;DHT22;499;42.648;23.270;2022-10-31T16:04:53;15.90;24.50
1021;DHT22;499;42.648;23.270;2022-10-31T16:07:21;15.80;25.00
1021;DHT22;499;42.648;23.270;2022-10-31T16:09:53;15.90;24.90
1021;DHT22;499;42.648;23.270;2022-10-31T16:12:21;15.90;24.60
1021;DHT22;499;42.648;23.270;2022-10-31T16:14:49;15.80;24.40
1021;DHT22;499;42.648;23.270;2022-10-31T16:17:20;15.80;24.20
1021;DHT22;499;42.648;23.270;2022-10-31T16:19:52;15.80;24.10
1021;DHT22;499;42.648;23.270;2022-10-31T16:22:23;15.80;24.20
1021;DHT22;499;42.648;23.270;2022-10-31T16:24:55;15.80;24.00
1021;DHT22;499;42.648;23.270;2022-10-31T16:27:25;15.80;23.70
1021;DHT22;499;42.648;23.270;2022-10-31T16:29:55;15.80;23.90
1021;DHT22;499;42.648;23.270;2022-10-31T16:32:33;15.70;24.30
1021;DHT22;499;42.648;23.270;2022-10-31T16:35:17;15.70;24.90